createdAt,value
2022-09-23T00:04:08.388Z,98308.97
2022-09-23T00:34:12.488Z,98302.56
2022-09-23T01:04:16.644Z,98282.00
2022-09-23T01:34:24.637Z,98271.25
2022-09-23T02:04:31.361Z,98240.75
2022-09-23T02:34:42.262Z,98224.03
2022-09-23T03:04:53.276Z,98226.22
2022-09-23T03:35:03.121Z,98197.41
2022-09-23T04:05:08.307Z,98170.91
2022-09-23T04:35:12.373Z,98169.16
2022-09-23T05:05:18.548Z,98166.91
2022-09-23T05:35:23.740Z,98170.44
2022-09-23T06:05:27.846Z,98161.16
2022-09-23T06:35:33.145Z,98156.75
2022-09-23T07:05:38.314Z,98155.25
2022-09-23T07:35:43.406Z,98175.16
2022-09-23T08:05:48.121Z,98173.16
2022-09-23T08:35:52.478Z,98168.28
2022-09-23T09:05:56.760Z,98167.41
2022-09-23T09:36:13.262Z,98163.38
2022-09-23T10:06:24.282Z,98123.38
2022-09-23T10:36:29.303Z,98103.91
2022-09-23T11:06:43.017Z,98079.59
2022-09-23T11:36:50.948Z,98068.53
2022-09-23T12:06:59.773Z,98031.28
2022-09-23T12:37:05.552Z,98011.00
2022-09-23T13:07:10.186Z,97991.84
2022-09-23T13:37:17.957Z,97962.97
2022-09-23T14:07:26.363Z,97947.00
2022-09-23T14:37:51.603Z,97912.56
2022-09-23T15:07:56.777Z,97897.84
2022-09-23T15:38:03.152Z,97869.53
2022-09-23T16:08:09.248Z,97887.69
2022-09-23T16:38:13.629Z,97871.06
2022-09-23T17:08:18.986Z,97887.75
2022-09-23T17:38:28.901Z,97861.94
2022-09-23T18:08:33.367Z,97861.16
2022-09-23T18:38:37.425Z,97867.19
2022-09-23T19:08:42.355Z,97863.22
2022-09-23T19:38:46.375Z,97874.31
2022-09-23T20:08:50.526Z,97839.09
2022-09-23T20:38:55.848Z,97814.41
2022-09-23T21:09:00.783Z,97821.91
2022-09-23T21:39:05.401Z,97812.59
2022-09-23T22:09:11.786Z,97808.75
2022-09-23T22:39:16.028Z,97808.25
2022-09-23T23:09:20.439Z,97796.13
2022-09-23T23:39:25.563Z,97788.38
